sensor_id;sensor_type;location;lat;lon;timestamp;P1;durP1;ratioP1;P2;durP2;ratioP2
54935;SDS011;40838;50.676;7.838;2023-04-03T00:00:31;7.63;;;2.33;;
54935;SDS011;40838;50.676;7.838;2023-04-03T00:02:58;4.18;;;2.30;;
54935;SDS011;40838;50.676;7.838;2023-04-03T00:05:25;5.57;;;2.70;;
54935;SDS011;40838;50.676;7.838;2023-04-03T00:07:52;5.25;;;2.05;;
54935;SDS011;40838;50.676;7.838;2023-04-03T00:10:22;5.25;;;2.53;;
54935;SDS011;40838;50.676;7.838;2023-04-03T00:12:48;5.32;;;2.13;;
54935;SDS011;40838;50.676;7.838;2023-04-03T00:15:15;6.10;;;2.65;;
54935;SDS011;40838;50.676;7.838;2023-04-03T00:17:44;4.25;;;2.50;;
54935;SDS011;40838;50.676;7.838;2023-04-03T00:20:10;5.25;;;2.50;;
54935;SDS011;40838;50.676;7.838;2023-04-03T00:22:37;6.85;;;2.50;;
54935;SDS011;40838;50.676;7.838;2023-04-03T00:25:04;3.33;;;1.98;;
54935;SDS011;40838;50.676;7.838;2023-04-03T00:27:32;4.15;;;1.92;;
54935;SDS011;40838;50.676;7.838;2023-04-03T00:29:59;3.97;;;1.73;;
54935;SDS011;40838;50.676;7.838;2023-04-03T00:32:26;5.50;;;2.17;;
54935;SDS011;40838;50.676;7.838;2023-04-03T00:34:54;6.13;;;2.20;;
54935;SDS011;40838;50.676;7.838;2023-04-03T00:37:21;9.18;;;3.67;;
54935;SDS011;40838;50.676;7.838;2023-04-03T00:39:47;3.55;;;2.30;;
54935;SDS011;40838;50.676;7.838;2023-04-03T00:42:14;5.22;;;2.55;;
54935;SDS011;40838;50.676;7.838;2023-04-03T00:47:46;5.55;;;3.22;;
54935;SDS011;40838;50.676;7.838;2023-04-03T00:50:14;6.15;;;2.70;;
54935;SDS011;40838;50.676;7.838;2023-04-03T00:52:41;11.30;;;2.50;;
54935;SDS011;40838;50.676;7.838;2023-04-03T00:55:08;8.15;;;2.55;;
54935;SDS011;40838;50.676;7.838;2023-04-03T00:57:35;3.88;;;2.10;;
54935;SDS011;40838;50.676;7.838;2023-04-03T01:00:05;4.97;;;2.50;;
54935;SDS011;40838;50.676;7.838;2023-04-03T01:02:36;5.50;;;2.63;;
54935;SDS011;40838;50.676;7.838;2023-04-03T01:05:06;10.90;;;2.90;;
54935;SDS011;40838;50.676;7.838;2023-04-03T01:07:35;5.60;;;2.40;;
54935;SDS011;40838;50.676;7.838;2023-04-03T01:10:03;5.40;;;2.15;;
54935;SDS011;40838;50.676;7.838;2023-04-03T01:12:33;4.43;;;2.38;;
54935;SDS011;40838;50.676;7.838;2023-04-03T01:15:01;4.88;;;2.25;;
54935;SDS011;40838;50.676;7.838;2023-04-03T01:17:31;5.30;;;2.53;;
54935;SDS011;40838;50.676;7.838;2023-04-03T01:20:11;5.00;;;1.67;;
54935;SDS011;40838;50.676;7.838;2023-04-03T01:22:59;4.28;;;2.50;;
54935;SDS011;40838;50.676;7.838;2023-04-03T01:25:33;6.20;;;2.30;;
54935;SDS011;40838;50.676;7.838;2023-04-03T01:28:02;4.90;;;1.90;;
54935;SDS011;40838;50.676;7.838;2023-04-03T01:30:30;6.55;;;2.00;;
54935;SDS011;40838;50.676;7.838;2023-04-03T01:33:00;5.47;;;2.13;;
54935;SDS011;40838;50.676;7.838;2023-04-03T01:35:28;4.00;;;2.03;;
54935;SDS011;40838;50.676;7.838;2023-04-03T01:37:55;5.38;;;2.03;;
54935;SDS011;40838;50.676;7.838;2023-04-03T01:40:22;4.13;;;2.10;;
54935;SDS011;40838;50.676;7.838;2023-04-03T01:42:49;3.75;;;2.28;;
54935;SDS011;40838;50.676;7.838;2023-04-03T01:45:16;5.40;;;2.20;;
54935;SDS011;40838;50.676;7.838;2023-04-03T01:47:43;4.40;;;2.30;;
54935;SDS011;40838;50.676;7.838;2023-04-03T01:50:11;2.30;;;1.85;;
54935;SDS011;40838;50.676;7.838;2023-04-03T01:52:38;5.85;;;2.00;;
54935;SDS011;40838;50.676;7.838;2023-04-03T01:55:05;5.55;;;2.38;;
54935;SDS011;40838;50.676;7.838;2023-04-03T01:57:33;4.82;;;2.33;;
54935;SDS011;40838;50.676;7.838;2023-04-03T02:00:00;3.35;;;2.70;;
54935;SDS011;40838;50.676;7.838;2023-04-03T02:02:27;6.28;;;2.33;;
54935;SDS011;40838;50.676;7.838;2023-04-03T02:04:54;4.40;;;1.95;;
54935;SDS011;40838;50.676;7.838;2023-04-03T02:07:22;4.30;;;2.20;;
54935;SDS011;40838;50.676;7.838;2023-04-03T02:09:49;4.43;;;2.20;;
54935;SDS011;40838;50.676;7.838;2023-04-03T02:12:16;5.40;;;1.90;;
54935;SDS011;40838;50.676;7.838;2023-04-03T02:14:43;3.10;;;2.13;;
54935;SDS011;40838;50.676;7.838;2023-04-03T02:17:11;3.05;;;2.53;;
54935;SDS011;40838;50.676;7.838;2023-04-03T02:19:38;3.88;;;2.03;;
54935;SDS011;40838;50.676;7.838;2023-04-03T02:22:05;8.75;;;3.08;;
54935;SDS011;40838;50.676;7.838;2023-04-03T02:24:33;6.28;;;3.35;;
54935;SDS011;40838;50.676;7.838;2023-04-03T02:27:00;4.25;;;2.15;;
54935;SDS011;40838;50.676;7.838;2023-04-03T02:29:27;7.47;;;2.35;;
54935;SDS011;40838;50.676;7.838;2023-04-03T02:31:53;3.65;;;2.15;;
54935;SDS011;40838;50.676;7.838;2023-04-03T02:34:22;4.45;;;2.30;;
54935;SDS011;40838;50.676;7.838;2023-04-03T02:36:49;5.75;;;1.83;;
54935;SDS011;40838;50.676;7.838;2023-04-03T02:39:18;6.70;;;2.00;;
54935;SDS011;40838;50.676;7.838;2023-04-03T02:41:47;8.95;;;2.38;;
54935;SDS011;40838;50.676;7.838;2023-04-03T02:44:20;4.93;;;1.53;;
54935;SDS011;40838;50.676;7.838;2023-04-03T02:46:48;5.47;;;1.55;;
54935;SDS011;40838;50.676;7.838;2023-04-03T02:49:16;7.57;;;1.63;;
54935;SDS011;40838;50.676;7.838;2023-04-03T02:51:43;3.22;;;1.05;;
54935;SDS011;40838;50.676;7.838;2023-04-03T02:54:10;2.60;;;0.90;;
54935;SDS011;40838;50.676;7.838;2023-04-03T02:56:42;7.47;;;1.40;;
54935;SDS011;40838;50.676;7.838;2023-04-03T02:59:10;4.60;;;1.88;;
54935;SDS011;40838;50.676;7.838;2023-04-03T03:01:39;5.90;;;1.88;;
54935;SDS011;40838;50.676;7.838;2023-04-03T03:04:05;4.40;;;1.13;;
54935;SDS011;40838;50.676;7.838;2023-04-03T03:06:32;2.60;;;1.05;;
54935;SDS011;40838;50.676;7.838;2023-04-03T03:08:59;11.93;;;1.52;;
54935;SDS011;40838;50.676;7.838;2023-04-03T03:11:26;7.80;;;1.60;;
54935;SDS011;40838;50.676;7.838;2023-04-03T03:13:53;3.55;;;1.40;;
54935;SDS011;40838;50.676;7.838;2023-04-03T03:16:21;3.15;;;1.20;;
54935;SDS011;40838;50.676;7.838;2023-04-03T03:18:48;7.93;;;1.40;;
54935;SDS011;40838;50.676;7.838;2023-04-03T03:21:15;7.60;;;1.40;;
54935;SDS011;40838;50.676;7.838;2023-04-03T03:23:42;8.32;;;1.40;;
54935;SDS011;40838;50.676;7.838;2023-04-03T03:26:10;9.20;;;3.40;;
54935;SDS011;40838;50.676;7.838;2023-04-03T03:28:38;11.43;;;4.18;;
54935;SDS011;40838;50.676;7.838;2023-04-03T03:31:06;6.80;;;2.50;;
54935;SDS011;40838;50.676;7.838;2023-04-03T03:33:37;12.68;;;2.05;;
54935;SDS011;40838;50.676;7.838;2023-04-03T03:36:04;5.55;;;2.00;;
54935;SDS011;40838;50.676;7.838;2023-04-03T03:38:31;4.38;;;1.33;;
54935;SDS011;40838;50.676;7.838;2023-04-03T03:41:00;7.65;;;1.15;;
54935;SDS011;40838;50.676;7.838;2023-04-03T03:43:28;2.83;;;1.10;;
54935;SDS011;40838;50.676;7.838;2023-04-03T03:45:55;6.88;;;0.95;;
54935;SDS011;40838;50.676;7.838;2023-04-03T03:48:23;7.68;;;1.40;;
54935;SDS011;40838;50.676;7.838;2023-04-03T03:50:52;1.60;;;0.88;;
54935;SDS011;40838;50.676;7.838;2023-04-03T03:53:23;5.38;;;1.75;;
54935;SDS011;40838;50.676;7.838;2023-04-03T03:55:52;6.20;;;2.35;;
54935;SDS011;40838;50.676;7.838;2023-04-03T03:58:22;5.38;;;1.40;;
54935;SDS011;40838;50.676;7.838;2023-04-03T04:00:49;5.85;;;1.23;;
54935;SDS011;40838;50.676;7.838;2023-04-03T04:03:16;6.53;;;1.92;;
54935;SDS011;40838;50.676;7.838;2023-04-03T04:05:46;3.95;;;1.55;;
54935;SDS011;40838;50.676;7.838;2023-04-03T04:08:14;6.57;;;1.20;;
54935;SDS011;40838;50.676;7.838;2023-04-03T04:10:43;2.05;;;1.05;;
54935;SDS011;40838;50.676;7.838;2023-04-03T04:13:12;2.75;;;1.13;;
54935;SDS011;40838;50.676;7.838;2023-04-03T04:15:39;6.07;;;1.27;;
54935;SDS011;40838;50.676;7.838;2023-04-03T04:18:06;3.20;;;1.10;;
54935;SDS011;40838;50.676;7.838;2023-04-03T04:20:33;4.90;;;1.33;;
54935;SDS011;40838;50.676;7.838;2023-04-03T04:23:01;7.90;;;1.20;;
54935;SDS011;40838;50.676;7.838;2023-04-03T04:25:30;3.08;;;1.10;;
54935;SDS011;40838;50.676;7.838;2023-04-03T04:27:58;6.75;;;1.58;;
54935;SDS011;40838;50.676;7.838;2023-04-03T04:30:25;7.38;;;1.25;;
54935;SDS011;40838;50.676;7.838;2023-04-03T04:32:54;2.85;;;1.35;;
54935;SDS011;40838;50.676;7.838;2023-04-03T04:35:21;2.90;;;1.23;;
54935;SDS011;40838;50.676;7.838;2023-04-03T04:37:50;6.63;;;1.48;;
54935;SDS011;40838;50.676;7.838;2023-04-03T04:40:17;2.42;;;1.27;;
54935;SDS011;40838;50.676;7.838;2023-04-03T04:42:46;2.92;;;1.10;;
54935;SDS011;40838;50.676;7.838;2023-04-03T04:45:14;7.95;;;1.50;;
54935;SDS011;40838;50.676;7.838;2023-04-03T04:47:43;3.65;;;1.60;;
54935;SDS011;40838;50.676;7.838;2023-04-03T04:50:10;3.47;;;1.17;;
54935;SDS011;40838;50.676;7.838;2023-04-03T04:52:38;2.13;;;1.20;;
54935;SDS011;40838;50.676;7.838;2023-04-03T04:55:07;2.65;;;1.20;;
54935;SDS011;40838;50.676;7.838;2023-04-03T04:57:35;5.90;;;1.35;;
54935;SDS011;40838;50.676;7.838;2023-04-03T05:00:06;5.82;;;1.50;;
54935;SDS011;40838;50.676;7.838;2023-04-03T05:02:34;5.88;;;1.48;;
54935;SDS011;40838;50.676;7.838;2023-04-03T05:05:01;4.00;;;1.35;;
54935;SDS011;40838;50.676;7.838;2023-04-03T05:07:28;7.45;;;1.20;;
54935;SDS011;40838;50.676;7.838;2023-04-03T05:09:59;3.08;;;1.20;;
54935;SDS011;40838;50.676;7.838;2023-04-03T05:12:27;6.28;;;2.17;;
54935;SDS011;40838;50.676;7.838;2023-04-03T05:14:58;7.88;;;1.30;;
54935;SDS011;40838;50.676;7.838;2023-04-03T05:17:27;6.40;;;1.48;;
54935;SDS011;40838;50.676;7.838;2023-04-03T05:19:56;7.57;;;1.45;;
54935;SDS011;40838;50.676;7.838;2023-04-03T05:22:24;8.25;;;1.65;;
54935;SDS011;40838;50.676;7.838;2023-04-03T05:24:55;3.03;;;1.20;;
54935;SDS011;40838;50.676;7.838;2023-04-03T05:27:22;2.08;;;1.33;;
54935;SDS011;40838;50.676;7.838;2023-04-03T05:29:52;4.00;;;1.23;;
54935;SDS011;40838;50.676;7.838;2023-04-03T05:32:21;6.15;;;1.77;;
54935;SDS011;40838;50.676;7.838;2023-04-03T05:34:55;4.70;;;1.80;;
54935;SDS011;40838;50.676;7.838;2023-04-03T05:37:22;3.92;;;1.33;;
54935;SDS011;40838;50.676;7.838;2023-04-03T05:39:51;6.18;;;1.20;;
54935;SDS011;40838;50.676;7.838;2023-04-03T05:42:18;4.90;;;1.45;;
54935;SDS011;40838;50.676;7.838;2023-04-03T05:44:45;4.60;;;1.30;;
54935;SDS011;40838;50.676;7.838;2023-04-03T05:47:13;5.25;;;1.27;;
54935;SDS011;40838;50.676;7.838;2023-04-03T05:49:40;4.45;;;1.42;;
54935;SDS011;40838;50.676;7.838;2023-04-03T05:52:11;6.65;;;1.50;;
54935;SDS011;40838;50.676;7.838;2023-04-03T05:54:46;3.70;;;1.17;;
54935;SDS011;40838;50.676;7.838;2023-04-03T05:57:19;3.50;;;1.50;;
54935;SDS011;40838;50.676;7.838;2023-04-03T05:59:46;4.57;;;1.20;;
54935;SDS011;40838;50.676;7.838;2023-04-03T06:02:14;4.60;;;1.70;;
54935;SDS011;40838;50.676;7.838;2023-04-03T06:04:44;6.65;;;1.60;;
54935;SDS011;40838;50.676;7.838;2023-04-03T06:07:13;3.92;;;1.58;;
54935;SDS011;40838;50.676;7.838;2023-04-03T06:09:42;3.33;;;1.35;;
54935;SDS011;40838;50.676;7.838;2023-04-03T06:12:09;6.47;;;1.35;;
54935;SDS011;40838;50.676;7.838;2023-04-03T06:14:37;5.97;;;1.92;;
54935;SDS011;40838;50.676;7.838;2023-04-03T06:17:05;2.97;;;1.38;;
54935;SDS011;40838;50.676;7.838;2023-04-03T06:19:34;4.78;;;1.45;;
54935;SDS011;40838;50.676;7.838;2023-04-03T06:22:01;6.88;;;1.70;;
54935;SDS011;40838;50.676;7.838;2023-04-03T06:24:30;4.53;;;1.85;;
54935;SDS011;40838;50.676;7.838;2023-04-03T06:26:58;3.28;;;1.23;;
54935;SDS011;40838;50.676;7.838;2023-04-03T06:29:25;4.05;;;1.77;;
54935;SDS011;40838;50.676;7.838;2023-04-03T06:31:52;3.05;;;1.23;;
54935;SDS011;40838;50.676;7.838;2023-04-03T06:34:19;5.45;;;1.60;;
54935;SDS011;40838;50.676;7.838;2023-04-03T06:36:45;5.78;;;1.60;;
54935;SDS011;40838;50.676;7.838;2023-04-03T06:39:12;5.47;;;1.60;;
54935;SDS011;40838;50.676;7.838;2023-04-03T06:41:42;7.13;;;1.80;;
54935;SDS011;40838;50.676;7.838;2023-04-03T06:44:09;2.85;;;1.23;;
54935;SDS011;40838;50.676;7.838;2023-04-03T06:46:36;6.15;;;1.30;;
54935;SDS011;40838;50.676;7.838;2023-04-03T06:49:04;3.05;;;1.60;;
54935;SDS011;40838;50.676;7.838;2023-04-03T06:51:32;6.07;;;1.92;;
54935;SDS011;40838;50.676;7.838;2023-04-03T06:53:59;5.57;;;1.50;;
54935;SDS011;40838;50.676;7.838;2023-04-03T06:56:27;5.38;;;1.48;;
54935;SDS011;40838;50.676;7.838;2023-04-03T06:58:55;7.13;;;1.92;;
54935;SDS011;40838;50.676;7.838;2023-04-03T07:01:23;5.40;;;1.42;;
54935;SDS011;40838;50.676;7.838;2023-04-03T07:03:52;4.95;;;1.33;;
54935;SDS011;40838;50.676;7.838;2023-04-03T07:06:20;7.40;;;1.52;;
54935;SDS011;40838;50.676;7.838;2023-04-03T07:08:47;4.40;;;1.90;;
54935;SDS011;40838;50.676;7.838;2023-04-03T07:11:14;5.75;;;1.50;;
54935;SDS011;40838;50.676;7.838;2023-04-03T07:13:42;7.63;;;1.75;;
54935;SDS011;40838;50.676;7.838;2023-04-03T07:16:10;4.78;;;1.33;;
54935;SDS011;40838;50.676;7.838;2023-04-03T07:18:37;6.88;;;1.60;;
54935;SDS011;40838;50.676;7.838;2023-04-03T07:21:04;4.90;;;1.30;;
54935;SDS011;40838;50.676;7.838;2023-04-03T07:23:31;7.80;;;1.48;;
54935;SDS011;40838;50.676;7.838;2023-04-03T07:25:58;4.18;;;1.23;;
54935;SDS011;40838;50.676;7.838;2023-04-03T07:28:25;5.13;;;1.52;;
54935;SDS011;40838;50.676;7.838;2023-04-03T07:30:52;3.47;;;1.15;;
54935;SDS011;40838;50.676;7.838;2023-04-03T07:33:22;8.07;;;1.85;;
54935;SDS011;40838;50.676;7.838;2023-04-03T07:35:49;8.70;;;1.70;;
54935;SDS011;40838;50.676;7.838;2023-04-03T07:38:16;4.72;;;1.67;;
54935;SDS011;40838;50.676;7.838;2023-04-03T07:40:45;7.10;;;1.60;;
54935;SDS011;40838;50.676;7.838;2023-04-03T07:43:13;5.20;;;1.60;;
54935;SDS011;40838;50.676;7.838;2023-04-03T07:45:40;4.97;;;2.20;;
54935;SDS011;40838;50.676;7.838;2023-04-03T07:48:08;5.95;;;1.90;;
54935;SDS011;40838;50.676;7.838;2023-04-03T07:50:37;6.47;;;1.80;;
54935;SDS011;40838;50.676;7.838;2023-04-03T07:53:05;3.35;;;1.20;;
54935;SDS011;40838;50.676;7.838;2023-04-03T07:55:33;2.88;;;1.20;;
54935;SDS011;40838;50.676;7.838;2023-04-03T07:58:02;3.78;;;1.25;;
54935;SDS011;40838;50.676;7.838;2023-04-03T08:00:29;2.83;;;1.67;;
54935;SDS011;40838;50.676;7.838;2023-04-03T08:02:56;7.55;;;1.67;;
54935;SDS011;40838;50.676;7.838;2023-04-03T08:05:24;6.10;;;1.85;;
54935;SDS011;40838;50.676;7.838;2023-04-03T08:07:52;4.53;;;1.70;;
54935;SDS011;40838;50.676;7.838;2023-04-03T08:10:19;3.78;;;1.50;;
54935;SDS011;40838;50.676;7.838;2023-04-03T08:12:46;3.83;;;1.75;;
54935;SDS011;40838;50.676;7.838;2023-04-03T08:15:13;4.72;;;1.60;;
54935;SDS011;40838;50.676;7.838;2023-04-03T08:17:41;2.35;;;1.33;;
54935;SDS011;40838;50.676;7.838;2023-04-03T08:20:09;5.65;;;2.30;;
54935;SDS011;40838;50.676;7.838;2023-04-03T08:22:36;5.55;;;1.30;;
54935;SDS011;40838;50.676;7.838;2023-04-03T08:25:05;3.47;;;1.30;;
54935;SDS011;40838;50.676;7.838;2023-04-03T08:27:33;6.95;;;1.92;;
54935;SDS011;40838;50.676;7.838;2023-04-03T08:30:00;4.28;;;1.45;;
54935;SDS011;40838;50.676;7.838;2023-04-03T08:32:27;5.45;;;1.33;;
54935;SDS011;40838;50.676;7.838;2023-04-03T08:34:54;6.75;;;1.60;;
54935;SDS011;40838;50.676;7.838;2023-04-03T08:37:21;3.88;;;1.40;;
54935;SDS011;40838;50.676;7.838;2023-04-03T08:39:48;4.55;;;1.55;;
54935;SDS011;40838;50.676;7.838;2023-04-03T08:42:18;2.03;;;1.33;;
54935;SDS011;40838;50.676;7.838;2023-04-03T08:44:57;5.20;;;1.20;;
54935;SDS011;40838;50.676;7.838;2023-04-03T08:47:28;4.43;;;1.38;;
54935;SDS011;40838;50.676;7.838;2023-04-03T08:50:05;5.53;;;1.30;;
54935;SDS011;40838;50.676;7.838;2023-04-03T08:52:38;3.97;;;1.30;;
54935;SDS011;40838;50.676;7.838;2023-04-03T08:55:13;3.97;;;1.10;;
54935;SDS011;40838;50.676;7.838;2023-04-03T08:57:48;3.42;;;1.40;;
54935;SDS011;40838;50.676;7.838;2023-04-03T09:00:20;2.55;;;1.83;;
54935;SDS011;40838;50.676;7.838;2023-04-03T09:02:50;5.65;;;1.63;;
54935;SDS011;40838;50.676;7.838;2023-04-03T09:05:20;5.60;;;1.33;;
54935;SDS011;40838;50.676;7.838;2023-04-03T09:07:57;2.47;;;1.27;;
54935;SDS011;40838;50.676;7.838;2023-04-03T09:10:30;3.67;;;1.23;;
54935;SDS011;40838;50.676;7.838;2023-04-03T09:13:03;4.13;;;1.75;;
54935;SDS011;40838;50.676;7.838;2023-04-03T09:15:34;3.13;;;1.08;;
54935;SDS011;40838;50.676;7.838;2023-04-03T09:18:03;6.90;;;1.88;;
54935;SDS011;40838;50.676;7.838;2023-04-03T09:20:37;2.47;;;1.20;;
54935;SDS011;40838;50.676;7.838;2023-04-03T09:23:15;2.47;;;1.20;;
54935;SDS011;40838;50.676;7.838;2023-04-03T09:25:48;2.50;;;1.33;;
54935;SDS011;40838;50.676;7.838;2023-04-03T09:28:19;7.47;;;1.67;;
54935;SDS011;40838;50.676;7.838;2023-04-03T09:30:46;4.22;;;1.15;;
54935;SDS011;40838;50.676;7.838;2023-04-03T09:33:13;6.20;;;1.33;;
54935;SDS011;40838;50.676;7.838;2023-04-03T09:35:49;3.30;;;1.17;;
54935;SDS011;40838;50.676;7.838;2023-04-03T09:38:17;2.40;;;1.02;;
54935;SDS011;40838;50.676;7.838;2023-04-03T09:40:47;3.30;;;1.40;;
54935;SDS011;40838;50.676;7.838;2023-04-03T09:43:22;5.57;;;1.30;;
54935;SDS011;40838;50.676;7.838;2023-04-03T09:45:54;3.08;;;1.25;;
54935;SDS011;40838;50.676;7.838;2023-04-03T09:48:24;3.50;;;1.20;;
54935;SDS011;40838;50.676;7.838;2023-04-03T09:50:59;3.47;;;1.35;;
54935;SDS011;40838;50.676;7.838;2023-04-03T09:53:32;1.85;;;1.00;;
54935;SDS011;40838;50.676;7.838;2023-04-03T09:56:03;2.23;;;0.93;;
54935;SDS011;40838;50.676;7.838;2023-04-03T09:58:38;4.80;;;1.40;;
54935;SDS011;40838;50.676;7.838;2023-04-03T10:01:09;1.48;;;0.88;;
54935;SDS011;40838;50.676;7.838;2023-04-03T10:04:01;3.03;;;1.00;;
54935;SDS011;40838;50.676;7.838;2023-04-03T10:06:32;1.55;;;1.05;;
54935;SDS011;40838;50.676;7.838;2023-04-03T10:09:02;2.40;;;1.10;;
54935;SDS011;40838;50.676;7.838;2023-04-03T10:11:32;6.97;;;1.35;;
54935;SDS011;40838;50.676;7.838;2023-04-03T10:14:01;4.00;;;1.05;;
54935;SDS011;40838;50.676;7.838;2023-04-03T10:16:35;3.65;;;1.02;;
54935;SDS011;40838;50.676;7.838;2023-04-03T10:19:18;4.47;;;0.82;;
54935;SDS011;40838;50.676;7.838;2023-04-03T10:21:59;1.75;;;0.90;;
54935;SDS011;40838;50.676;7.838;2023-04-03T10:24:31;6.45;;;1.10;;
54935;SDS011;40838;50.676;7.838;2023-04-03T10:27:08;1.95;;;1.23;;
54935;SDS011;40838;50.676;7.838;2023-04-03T10:29:42;1.98;;;1.02;;
54935;SDS011;40838;50.676;7.838;2023-04-03T10:32:23;3.03;;;1.20;;
54935;SDS011;40838;50.676;7.838;2023-04-03T10:34:59;3.38;;;1.17;;
54935;SDS011;40838;50.676;7.838;2023-04-03T10:37:35;3.33;;;1.10;;
54935;SDS011;40838;50.676;7.838;2023-04-03T10:40:15;1.98;;;1.00;;
54935;SDS011;40838;50.676;7.838;2023-04-03T10:42:52;2.40;;;1.02;;
54935;SDS011;40838;50.676;7.838;2023-04-03T10:45:26;1.58;;;0.90;;
54935;SDS011;40838;50.676;7.838;2023-04-03T10:48:00;2.65;;;1.10;;
54935;SDS011;40838;50.676;7.838;2023-04-03T10:50:37;2.80;;;0.98;;
54935;SDS011;40838;50.676;7.838;2023-04-03T10:53:11;3.58;;;1.10;;
54935;SDS011;40838;50.676;7.838;2023-04-03T10:55:50;1.70;;;1.15;;
54935;SDS011;40838;50.676;7.838;2023-04-03T10:58:25;1.58;;;0.80;;
54935;SDS011;40838;50.676;7.838;2023-04-03T11:00:57;4.60;;;1.05;;
54935;SDS011;40838;50.676;7.838;2023-04-03T11:03:29;2.30;;;1.15;;
54935;SDS011;40838;50.676;7.838;2023-04-03T11:05:59;1.60;;;0.82;;
54935;SDS011;40838;50.676;7.838;2023-04-03T11:08:29;5.05;;;1.40;;
54935;SDS011;40838;50.676;7.838;2023-04-03T11:11:00;2.83;;;1.05;;
54935;SDS011;40838;50.676;7.838;2023-04-03T11:13:33;2.40;;;0.90;;
54935;SDS011;40838;50.676;7.838;2023-04-03T11:16:05;4.28;;;1.30;;
54935;SDS011;40838;50.676;7.838;2023-04-03T11:18:34;2.20;;;0.90;;
54935;SDS011;40838;50.676;7.838;2023-04-03T11:21:06;3.85;;;1.20;;
54935;SDS011;40838;50.676;7.838;2023-04-03T11:23:39;2.28;;;1.08;;
54935;SDS011;40838;50.676;7.838;2023-04-03T11:26:08;5.38;;;1.67;;
54935;SDS011;40838;50.676;7.838;2023-04-03T11:28:37;4.78;;;1.60;;
54935;SDS011;40838;50.676;7.838;2023-04-03T11:31:09;3.40;;;1.10;;
54935;SDS011;40838;50.676;7.838;2023-04-03T11:33:51;2.90;;;1.05;;
54935;SDS011;40838;50.676;7.838;2023-04-03T11:36:32;6.07;;;1.27;;
54935;SDS011;40838;50.676;7.838;2023-04-03T11:39:07;5.03;;;1.48;;
54935;SDS011;40838;50.676;7.838;2023-04-03T11:41:42;3.05;;;1.02;;
54935;SDS011;40838;50.676;7.838;2023-04-03T11:44:25;2.08;;;0.90;;
54935;SDS011;40838;50.676;7.838;2023-04-03T11:46:58;3.30;;;1.10;;
54935;SDS011;40838;50.676;7.838;2023-04-03T11:58:12;1.65;;;0.80;;
54935;SDS011;40838;50.676;7.838;2023-04-03T12:00:48;4.85;;;1.40;;
54935;SDS011;40838;50.676;7.838;2023-04-03T12:06:48;1.17;;;0.85;;
54935;SDS011;40838;50.676;7.838;2023-04-03T12:09:35;5.78;;;1.50;;
54935;SDS011;40838;50.676;7.838;2023-04-03T12:12:31;2.80;;;0.90;;
54935;SDS011;40838;50.676;7.838;2023-04-03T12:15:22;1.87;;;1.07;;
54935;SDS011;40838;50.676;7.838;2023-04-03T12:21:15;5.13;;;1.17;;
54935;SDS011;40838;50.676;7.838;2023-04-03T12:24:02;4.18;;;0.90;;
54935;SDS011;40838;50.676;7.838;2023-04-03T12:26:32;1.88;;;1.00;;
54935;SDS011;40838;50.676;7.838;2023-04-03T12:29:10;1.95;;;0.93;;
54935;SDS011;40838;50.676;7.838;2023-04-03T12:31:44;2.30;;;1.30;;
54935;SDS011;40838;50.676;7.838;2023-04-03T12:34:30;4.38;;;1.05;;
54935;SDS011;40838;50.676;7.838;2023-04-03T12:37:16;2.95;;;0.90;;
54935;SDS011;40838;50.676;7.838;2023-04-03T12:39:56;2.20;;;1.20;;
54935;SDS011;40838;50.676;7.838;2023-04-03T12:42:42;1.88;;;1.02;;
54935;SDS011;40838;50.676;7.838;2023-04-03T12:45:27;1.58;;;1.02;;
54935;SDS011;40838;50.676;7.838;2023-04-03T12:47:54;3.80;;;0.85;;
54935;SDS011;40838;50.676;7.838;2023-04-03T12:50:22;1.55;;;0.90;;
54935;SDS011;40838;50.676;7.838;2023-04-03T12:52:54;4.90;;;1.10;;
54935;SDS011;40838;50.676;7.838;2023-04-03T12:55:25;2.40;;;1.00;;
54935;SDS011;40838;50.676;7.838;2023-04-03T12:57:52;5.47;;;2.35;;
54935;SDS011;40838;50.676;7.838;2023-04-03T13:00:28;3.83;;;1.00;;
54935;SDS011;40838;50.676;7.838;2023-04-03T13:02:57;3.40;;;1.10;;
54935;SDS011;40838;50.676;7.838;2023-04-03T13:05:25;3.40;;;1.00;;
54935;SDS011;40838;50.676;7.838;2023-04-03T13:07:53;4.65;;;1.33;;
54935;SDS011;40838;50.676;7.838;2023-04-03T13:10:25;2.10;;;1.05;;
54935;SDS011;40838;50.676;7.838;2023-04-03T13:12:53;2.33;;;0.90;;
54935;SDS011;40838;50.676;7.838;2023-04-03T13:15:25;1.75;;;1.00;;
54935;SDS011;40838;50.676;7.838;2023-04-03T13:17:53;2.17;;;1.10;;
54935;SDS011;40838;50.676;7.838;2023-04-03T13:20:23;3.00;;;1.23;;
54935;SDS011;40838;50.676;7.838;2023-04-03T13:22:53;7.00;;;1.35;;
54935;SDS011;40838;50.676;7.838;2023-04-03T13:25:26;3.63;;;1.25;;
54935;SDS011;40838;50.676;7.838;2023-04-03T13:27:56;2.17;;;0.90;;
54935;SDS011;40838;50.676;7.838;2023-04-03T13:30:27;2.95;;;1.02;;
54935;SDS011;40838;50.676;7.838;2023-04-03T13:32:56;3.15;;;1.00;;
54935;SDS011;40838;50.676;7.838;2023-04-03T13:35:26;2.17;;;1.15;;
54935;SDS011;40838;50.676;7.838;2023-04-03T13:37:56;1.90;;;1.10;;
54935;SDS011;40838;50.676;7.838;2023-04-03T13:40:26;3.45;;;1.23;;
54935;SDS011;40838;50.676;7.838;2023-04-03T13:43:00;4.18;;;1.30;;
54935;SDS011;40838;50.676;7.838;2023-04-03T13:45:29;1.15;;;0.75;;
54935;SDS011;40838;50.676;7.838;2023-04-03T13:48:07;5.10;;;0.70;;
54935;SDS011;40838;50.676;7.838;2023-04-03T13:50:50;1.35;;;0.80;;
54935;SDS011;40838;50.676;7.838;2023-04-03T13:53:19;3.90;;;0.90;;
54935;SDS011;40838;50.676;7.838;2023-04-03T13:55:56;4.93;;;1.15;;
54935;SDS011;40838;50.676;7.838;2023-04-03T13:58:25;4.05;;;0.93;;
54935;SDS011;40838;50.676;7.838;2023-04-03T14:00:55;4.18;;;0.90;;
54935;SDS011;40838;50.676;7.838;2023-04-03T14:03:36;2.50;;;0.90;;
54935;SDS011;40838;50.676;7.838;2023-04-03T14:06:07;3.45;;;1.02;;
54935;SDS011;40838;50.676;7.838;2023-04-03T14:08:36;2.47;;;0.75;;
54935;SDS011;40838;50.676;7.838;2023-04-03T14:11:04;2.35;;;0.65;;
54935;SDS011;40838;50.676;7.838;2023-04-03T14:13:31;6.32;;;1.73;;
54935;SDS011;40838;50.676;7.838;2023-04-03T14:15:58;3.90;;;1.10;;
54935;SDS011;40838;50.676;7.838;2023-04-03T14:18:25;2.05;;;0.90;;
54935;SDS011;40838;50.676;7.838;2023-04-03T14:20:52;4.47;;;1.40;;
54935;SDS011;40838;50.676;7.838;2023-04-03T14:23:19;1.67;;;0.90;;
54935;SDS011;40838;50.676;7.838;2023-04-03T14:28:42;2.78;;;1.17;;
54935;SDS011;40838;50.676;7.838;2023-04-03T14:31:10;2.85;;;1.08;;
54935;SDS011;40838;50.676;7.838;2023-04-03T14:33:37;10.15;;;1.65;;
54935;SDS011;40838;50.676;7.838;2023-04-03T14:36:09;3.58;;;1.13;;
54935;SDS011;40838;50.676;7.838;2023-04-03T14:38:39;1.55;;;1.02;;
54935;SDS011;40838;50.676;7.838;2023-04-03T14:41:07;1.02;;;0.70;;
54935;SDS011;40838;50.676;7.838;2023-04-03T14:43:37;1.55;;;0.90;;
54935;SDS011;40838;50.676;7.838;2023-04-03T14:46:04;3.90;;;0.98;;
54935;SDS011;40838;50.676;7.838;2023-04-03T14:48:31;4.03;;;1.10;;
54935;SDS011;40838;50.676;7.838;2023-04-03T14:50:58;1.73;;;1.00;;
54935;SDS011;40838;50.676;7.838;2023-04-03T14:53:25;2.97;;;0.60;;
54935;SDS011;40838;50.676;7.838;2023-04-03T14:55:54;4.70;;;1.17;;
54935;SDS011;40838;50.676;7.838;2023-04-03T14:58:22;4.47;;;1.17;;
54935;SDS011;40838;50.676;7.838;2023-04-03T15:00:49;2.25;;;1.10;;
54935;SDS011;40838;50.676;7.838;2023-04-03T15:03:17;4.28;;;0.95;;
54935;SDS011;40838;50.676;7.838;2023-04-03T15:05:45;3.13;;;0.80;;
54935;SDS011;40838;50.676;7.838;2023-04-03T15:08:17;4.13;;;1.63;;
54935;SDS011;40838;50.676;7.838;2023-04-03T15:10:46;1.80;;;0.82;;
54935;SDS011;40838;50.676;7.838;2023-04-03T15:13:13;2.35;;;1.02;;
54935;SDS011;40838;50.676;7.838;2023-04-03T15:15:42;1.73;;;0.90;;
54935;SDS011;40838;50.676;7.838;2023-04-03T15:18:17;6.30;;;1.13;;
54935;SDS011;40838;50.676;7.838;2023-04-03T15:20:46;2.78;;;1.15;;
54935;SDS011;40838;50.676;7.838;2023-04-03T15:23:13;2.17;;;1.02;;
54935;SDS011;40838;50.676;7.838;2023-04-03T15:25:41;2.92;;;1.00;;